createdAt,value
2018-10-12T00:00:45.389Z,0
2018-10-12T00:01:45.137Z,0
2018-10-12T00:02:45.658Z,0
2018-10-12T00:03:45.662Z,0
2018-10-12T00:04:45.404Z,0
2018-10-12T00:05:45.393Z,0
2018-10-12T00:06:45.398Z,0
2018-10-12T00:07:45.144Z,0
2018-10-12T00:08:45.684Z,0
2018-10-12T00:09:45.680Z,0
2018-10-12T00:10:45.666Z,0
2018-10-12T00:11:45.393Z,0
2018-10-12T00:12:45.389Z,0
2018-10-12T00:13:45.125Z,0
2018-10-12T00:14:45.368Z,0
2018-10-12T00:15:45.622Z,0
2018-10-12T00:16:45.384Z,0
2018-10-12T00:17:45.667Z,0
2018-10-12T00:18:45.131Z,0
2018-10-12T00:19:45.907Z,0
2018-10-12T00:20:45.376Z,0
2018-10-12T00:21:45.369Z,0
2018-10-12T00:22:45.396Z,0
2018-10-12T00:23:45.146Z,0
2018-10-12T00:24:45.372Z,0
2018-10-12T00:25:45.886Z,0
2018-10-12T00:26:45.621Z,0
2018-10-12T00:27:45.365Z,0
2018-10-12T00:28:45.869Z,0
2018-10-12T00:29:45.872Z,0
2018-10-12T00:30:45.353Z,0
2018-10-12T00:31:45.880Z,0
2018-10-12T00:32:46.161Z,0
2018-10-12T00:33:45.381Z,0
2018-10-12T00:34:45.373Z,0
2018-10-12T00:35:45.874Z,0
2018-10-12T00:36:45.859Z,0
2018-10-12T00:37:45.359Z,0
2018-10-12T00:38:45.382Z,0
2018-10-12T00:39:45.616Z,0
2018-10-12T00:40:45.383Z,0
2018-10-12T00:41:44.831Z,0
2018-10-12T00:42:45.746Z,0
2018-10-12T00:43:45.361Z,0
2018-10-12T00:44:44.834Z,0
2018-10-12T00:45:45.872Z,0
2018-10-12T00:46:45.327Z,0
2018-10-12T00:47:45.334Z,0
2018-10-12T00:48:45.059Z,0
2018-10-12T00:49:45.904Z,0
2018-10-12T00:50:45.595Z,0
2018-10-12T00:51:45.842Z,0
2018-10-12T00:52:45.705Z,0
2018-10-12T00:53:45.833Z,0
2018-10-12T00:54:45.592Z,0
2018-10-12T00:55:45.325Z,0
2018-10-12T00:56:45.585Z,0
2018-10-12T00:57:46.135Z,0
2018-10-12T00:58:45.853Z,0
2018-10-12T00:59:45.604Z,0
2018-10-12T01:00:45.835Z,0
2018-10-12T01:01:45.890Z,0
2018-10-12T01:02:47.760Z,0
2018-10-12T01:03:45.842Z,0
2018-10-12T01:04:45.841Z,0
2018-10-12T01:05:45.581Z,0
2018-10-12T01:06:46.675Z,0
2018-10-12T01:07:45.294Z,0
2018-10-12T01:08:45.831Z,0
2018-10-12T01:09:45.562Z,0
2018-10-12T01:10:45.813Z,0
2018-10-12T01:11:45.577Z,0
2018-10-12T01:12:45.844Z,0
2018-10-12T01:13:45.566Z,0
2018-10-12T01:14:45.560Z,0
2018-10-12T01:15:45.306Z,0
2018-10-12T01:16:45.300Z,0
2018-10-12T01:17:45.645Z,0
2018-10-12T01:18:45.305Z,0
2018-10-12T01:19:45.637Z,0
2018-10-12T01:20:45.532Z,0
2018-10-12T01:21:45.551Z,0
2018-10-12T01:22:45.301Z,0
2018-10-12T01:23:46.401Z,0
2018-10-12T01:24:45.324Z,0
2018-10-12T01:25:45.548Z,0
2018-10-12T01:26:45.546Z,0
2018-10-12T01:27:45.290Z,0
2018-10-12T01:28:45.304Z,0
2018-10-12T01:29:45.540Z,0
2018-10-12T01:30:45.547Z,0
2018-10-12T01:31:45.307Z,0
2018-10-12T01:32:45.814Z,0
2018-10-12T01:33:47.162Z,0
2018-10-12T01:34:45.294Z,0
2018-10-12T01:35:45.540Z,0
2018-10-12T01:36:45.524Z,0
2018-10-12T01:37:45.286Z,0
2018-10-12T01:38:45.285Z,0
2018-10-12T01:39:45.773Z,0
2018-10-12T01:40:45.530Z,0
2018-10-12T01:41:45.530Z,0
2018-10-12T01:42:45.512Z,0
2018-10-12T01:43:45.805Z,0
2018-10-12T01:44:45.266Z,0
2018-10-12T01:45:45.545Z,0
2018-10-12T01:46:45.547Z,0
2018-10-12T01:47:45.245Z,0
2018-10-12T01:48:45.505Z,0
2018-10-12T01:49:44.994Z,0
2018-10-12T01:50:45.759Z,0
2018-10-12T01:51:44.981Z,0
2018-10-12T01:52:45.236Z,0
2018-10-12T01:53:45.504Z,0
2018-10-12T01:54:45.270Z,0
2018-10-12T01:55:45.488Z,0
2018-10-12T01:56:45.260Z,0
2018-10-12T01:57:45.741Z,0
2018-10-12T01:58:45.222Z,0
2018-10-12T01:59:45.761Z,0
2018-10-12T02:00:45.743Z,0
2018-10-12T02:01:45.236Z,0
2018-10-12T02:02:45.730Z,0
2018-10-12T02:03:45.296Z,0
2018-10-12T02:04:45.516Z,0
2018-10-12T02:05:45.512Z,0
2018-10-12T02:06:45.238Z,0
2018-10-12T02:07:45.490Z,0
2018-10-12T02:08:45.221Z,0
2018-10-12T02:09:45.733Z,0
2018-10-12T02:10:45.212Z,0
2018-10-12T02:11:45.480Z,0
2018-10-12T02:12:45.456Z,0
2018-10-12T02:13:45.256Z,0
2018-10-12T02:14:45.456Z,0
2018-10-12T02:15:45.448Z,0
2018-10-12T02:16:45.484Z,0
2018-10-12T02:17:44.972Z,0
2018-10-12T02:18:45.203Z,0
2018-10-12T02:19:45.725Z,0
2018-10-12T02:20:45.455Z,0
2018-10-12T02:21:45.195Z,0
2018-10-12T02:22:45.710Z,0
2018-10-12T02:23:45.831Z,0
2018-10-12T02:24:45.453Z,0
2018-10-12T02:25:45.458Z,0
2018-10-12T02:26:45.476Z,0
2018-10-12T02:27:45.454Z,0
2018-10-12T02:28:45.448Z,0
2018-10-12T02:29:45.208Z,0
2018-10-12T02:30:45.435Z,0
2018-10-12T02:31:45.694Z,0
2018-10-12T02:32:45.438Z,0
2018-10-12T02:33:45.685Z,0
2018-10-12T02:34:45.450Z,0
2018-10-12T02:35:45.434Z,0
2018-10-12T02:36:45.691Z,0
2018-10-12T02:37:45.694Z,0
2018-10-12T02:38:45.405Z,0
2018-10-12T02:39:45.734Z,0
2018-10-12T02:40:45.166Z,0
2018-10-12T02:41:45.414Z,0
2018-10-12T02:42:45.434Z,0
2018-10-12T02:43:45.416Z,0
2018-10-12T02:44:45.447Z,0
2018-10-12T02:45:45.414Z,0
2018-10-12T02:46:45.683Z,0
2018-10-12T02:47:45.192Z,0
2018-10-12T02:48:45.682Z,0
2018-10-12T02:49:45.653Z,0
2018-10-12T02:50:45.432Z,0
2018-10-12T02:51:45.663Z,0
2018-10-12T02:52:45.408Z,0
2018-10-12T02:53:45.397Z,0
2018-10-12T02:54:45.169Z,0
2018-10-12T02:55:45.149Z,0
2018-10-12T02:56:44.899Z,0
2018-10-12T02:57:45.421Z,0
2018-10-12T02:58:45.664Z,0
2018-10-12T02:59:45.396Z,0
2018-10-12T03:00:45.665Z,0
2018-10-12T03:01:45.398Z,0
2018-10-12T03:02:45.125Z,0
2018-10-12T03:03:45.647Z,0
2018-10-12T03:04:45.441Z,0
2018-10-12T03:05:45.394Z,0
2018-10-12T03:06:45.128Z,0
2018-10-12T03:07:45.396Z,0
2018-10-12T03:08:45.117Z,0
2018-10-12T03:09:45.381Z,0
2018-10-12T03:10:45.374Z,0
2018-10-12T03:11:45.652Z,0
2018-10-12T03:12:45.413Z,0
2018-10-12T03:13:44.873Z,0
2018-10-12T03:14:45.385Z,0
2018-10-12T03:15:45.618Z,0
2018-10-12T03:16:45.353Z,0
2018-10-12T03:17:45.327Z,0
2018-10-12T03:18:45.607Z,0
2018-10-12T03:19:45.326Z,0
2018-10-12T03:20:45.331Z,0
2018-10-12T03:21:45.355Z,0
2018-10-12T03:22:44.864Z,0
2018-10-12T03:23:45.372Z,0
2018-10-12T03:24:45.370Z,0
2018-10-12T03:25:45.349Z,0
2018-10-12T03:26:45.358Z,0
2018-10-12T03:27:45.340Z,0
2018-10-12T03:28:45.087Z,0
2018-10-12T03:29:45.416Z,0
2018-10-12T03:30:45.369Z,0
2018-10-12T03:31:45.360Z,0
2018-10-12T03:32:45.605Z,0
2018-10-12T03:33:45.830Z,0
2018-10-12T03:34:44.821Z,0
2018-10-12T03:35:45.345Z,0
2018-10-12T03:36:45.362Z,0
2018-10-12T03:37:45.609Z,0
2018-10-12T03:38:45.120Z,0
2018-10-12T03:39:45.081Z,0
2018-10-12T03:40:44.818Z,0
2018-10-12T03:41:45.349Z,0
2018-10-12T03:42:45.403Z,0
2018-10-12T03:43:44.825Z,0
2018-10-12T03:44:45.088Z,0
2018-10-12T03:45:45.608Z,0
2018-10-12T03:46:45.074Z,0
2018-10-12T03:47:45.576Z,0
2018-10-12T03:48:45.078Z,0
2018-10-12T03:49:45.576Z,0
2018-10-12T03:50:45.301Z,0
2018-10-12T03:51:45.378Z,0
2018-10-12T03:52:45.337Z,0
2018-10-12T03:53:45.306Z,0
2018-10-12T03:54:45.313Z,0
2018-10-12T03:55:45.302Z,0
2018-10-12T03:56:45.053Z,0
2018-10-12T03:57:45.550Z,0
2018-10-12T03:58:45.318Z,0
2018-10-12T03:59:45.017Z,0
2018-10-12T04:00:44.819Z,0
2018-10-12T04:01:45.284Z,0
2018-10-12T04:02:45.507Z,0
2018-10-12T04:03:45.279Z,0
2018-10-12T04:04:45.581Z,0
2018-10-12T04:05:45.293Z,0
2018-10-12T04:06:45.018Z,0
2018-10-12T04:07:44.538Z,0
2018-10-12T04:08:44.759Z,0
2018-10-12T04:09:45.285Z,0
2018-10-12T04:10:45.546Z,0
2018-10-12T04:11:45.516Z,0
2018-10-12T04:12:45.691Z,0
2018-10-12T04:13:45.023Z,0
2018-10-12T04:14:45.035Z,0
2018-10-12T04:15:45.553Z,0
2018-10-12T04:16:44.998Z,0
2018-10-12T04:17:45.249Z,0
2018-10-12T04:18:46.317Z,0
2018-10-12T04:19:45.529Z,0
2018-10-12T04:20:44.777Z,0
2018-10-12T04:21:45.256Z,0
2018-10-12T04:22:44.994Z,0
2018-10-12T04:23:45.251Z,0
2018-10-12T04:24:45.265Z,0
2018-10-12T04:25:45.511Z,0
2018-10-12T04:26:45.495Z,0
2018-10-12T04:27:45.217Z,0
2018-10-12T04:28:45.206Z,0
2018-10-12T04:29:45.216Z,0
2018-10-12T04:30:45.227Z,0
2018-10-12T04:31:45.476Z,0
2018-10-12T04:32:45.489Z,0
2018-10-12T04:33:45.218Z,0
2018-10-12T04:34:45.505Z,0
2018-10-12T04:35:45.257Z,0
2018-10-12T04:36:44.956Z,0
2018-10-12T04:37:45.209Z,0
2018-10-12T04:38:45.241Z,0
2018-10-12T04:39:45.228Z,0
2018-10-12T04:40:45.219Z,0
2018-10-12T04:41:44.961Z,0
2018-10-12T04:42:45.463Z,0
2018-10-12T04:43:45.206Z,0
2018-10-12T04:44:45.208Z,0
2018-10-12T04:45:45.237Z,0
2018-10-12T04:46:45.213Z,0
2018-10-12T04:47:44.685Z,0
2018-10-12T04:48:45.220Z,0
2018-10-12T04:49:45.240Z,0
2018-10-12T04:50:44.936Z,0
2018-10-12T04:51:44.692Z,0
2018-10-12T04:52:45.440Z,0
2018-10-12T04:53:45.098Z,0
2018-10-12T04:54:44.965Z,0
2018-10-12T04:55:45.451Z,0
2018-10-12T04:56:44.694Z,0
2018-10-12T04:57:44.687Z,0
2018-10-12T04:58:44.937Z,0
2018-10-12T04:59:45.438Z,0
2018-10-12T05:00:45.140Z,0
2018-10-12T05:01:45.205Z,0
2018-10-12T05:02:45.207Z,0
2018-10-12T05:03:45.181Z,0
2018-10-12T05:04:45.438Z,0
2018-10-12T05:05:45.412Z,0
2018-10-12T05:06:44.643Z,0
2018-10-12T05:07:44.871Z,0
2018-10-12T05:08:45.191Z,0
2018-10-12T05:09:45.185Z,0
2018-10-12T05:10:44.923Z,0
2018-10-12T05:11:45.189Z,0
2018-10-12T05:12:45.191Z,0
2018-10-12T05:13:45.214Z,0
2018-10-12T05:14:45.194Z,0
2018-10-12T05:15:45.146Z,0
2018-10-12T05:16:44.888Z,0
2018-10-12T05:17:45.152Z,0
2018-10-12T05:18:45.444Z,0
2018-10-12T05:19:44.778Z,0
2018-10-12T05:20:45.395Z,0
2018-10-12T05:21:44.866Z,0
2018-10-12T05:22:44.651Z,0
2018-10-12T05:23:44.607Z,0
2018-10-12T05:24:44.610Z,0
2018-10-12T05:25:44.886Z,0
2018-10-12T05:26:44.653Z,0
2018-10-12T05:27:45.376Z,0
2018-10-12T05:28:44.858Z,0
2018-10-12T05:29:44.870Z,0
2018-10-12T05:30:45.362Z,0
2018-10-12T05:31:44.905Z,0
2018-10-12T05:32:44.342Z,0
2018-10-12T05:33:45.122Z,5
2018-10-12T05:34:46.417Z,5
2018-10-12T05:35:45.084Z,5
2018-10-12T05:36:44.838Z,5
2018-10-12T05:37:45.081Z,5
2018-10-12T05:38:45.337Z,5
2018-10-12T05:39:45.111Z,5
2018-10-12T05:40:44.822Z,10
2018-10-12T05:41:45.081Z,10
2018-10-12T05:42:45.434Z,10
2018-10-12T05:43:45.541Z,10
2018-10-12T05:44:45.333Z,10
2018-10-12T05:45:45.082Z,15
2018-10-12T05:46:45.059Z,15
2018-10-12T05:47:45.076Z,15
2018-10-12T05:48:45.491Z,15
2018-10-12T05:49:45.078Z,15
2018-10-12T05:50:45.051Z,20
2018-10-12T05:51:44.785Z,20
2018-10-12T05:52:45.050Z,20
2018-10-12T05:53:45.072Z,20
2018-10-12T05:54:45.049Z,25
2018-10-12T05:55:45.634Z,25
2018-10-12T05:56:44.779Z,25
2018-10-12T05:57:45.045Z,25
2018-10-12T05:58:45.046Z,30
2018-10-12T05:59:45.294Z,30
2018-10-12T06:00:45.306Z,30
2018-10-12T06:01:44.785Z,35
2018-10-12T06:02:45.307Z,35
2018-10-12T06:03:45.286Z,35
2018-10-12T06:04:45.814Z,35
2018-10-12T06:05:45.014Z,40
2018-10-12T06:06:45.060Z,40
2018-10-12T06:07:45.048Z,40
2018-10-12T06:08:45.026Z,45
2018-10-12T06:09:45.308Z,45
2018-10-12T06:10:45.028Z,45
2018-10-12T06:11:44.754Z,45
2018-10-12T06:12:45.341Z,50
2018-10-12T06:13:44.769Z,50
2018-10-12T06:14:45.099Z,50
2018-10-12T06:15:46.129Z,55
2018-10-12T06:16:44.480Z,55
2018-10-12T06:17:44.986Z,55
2018-10-12T06:18:45.021Z,60
2018-10-12T06:19:45.002Z,60
2018-10-12T06:20:45.005Z,60
2018-10-12T06:21:45.892Z,60
2018-10-12T06:22:44.458Z,60
2018-10-12T06:23:44.726Z,65
2018-10-12T06:24:44.978Z,65
2018-10-12T06:25:44.717Z,65
2018-10-12T06:26:45.067Z,70
2018-10-12T06:27:44.983Z,70
2018-10-12T06:28:44.727Z,70
2018-10-12T06:29:44.973Z,70
2018-10-12T06:30:44.968Z,75
2018-10-12T06:31:44.973Z,75
2018-10-12T06:32:45.001Z,75
2018-10-12T06:33:45.290Z,75
2018-10-12T06:34:45.504Z,75
2018-10-12T06:35:44.962Z,80
2018-10-12T06:36:44.952Z,80
2018-10-12T06:37:44.166Z,80
2018-10-12T06:38:45.009Z,80
2018-10-12T06:39:44.956Z,85
2018-10-12T06:40:45.125Z,85
2018-10-12T06:41:45.887Z,85
2018-10-12T06:42:44.698Z,85
2018-10-12T06:43:44.962Z,85
2018-10-12T06:44:45.258Z,90
2018-10-12T06:45:44.412Z,90
2018-10-12T06:46:45.719Z,90
2018-10-12T06:47:44.959Z,90
2018-10-12T06:48:45.205Z,95
2018-10-12T06:49:44.957Z,95
2018-10-12T06:50:44.405Z,95
2018-10-12T06:51:45.208Z,95
2018-10-12T06:52:45.217Z,95
2018-10-12T06:53:44.428Z,95
2018-10-12T06:54:45.218Z,100
2018-10-12T06:55:44.909Z,100
2018-10-12T06:56:44.630Z,100
2018-10-12T06:57:44.943Z,100
2018-10-12T06:58:44.910Z,105
2018-10-12T06:59:45.016Z,105
2018-10-12T07:00:44.917Z,105
2018-10-12T07:01:44.130Z,105
2018-10-12T07:02:44.649Z,105
2018-10-12T07:03:44.960Z,105
2018-10-12T07:04:46.210Z,110
2018-10-12T07:05:45.581Z,110
2018-10-12T07:06:45.193Z,115
2018-10-12T07:07:44.657Z,120
2018-10-12T07:08:44.656Z,125
2018-10-12T07:09:44.910Z,130
2018-10-12T07:10:44.633Z,140
2018-10-12T07:11:45.172Z,145
2018-10-12T07:12:44.882Z,155
2018-10-12T07:13:45.156Z,160
2018-10-12T07:14:44.894Z,165
2018-10-12T07:15:44.893Z,165
2018-10-12T07:16:44.114Z,165
2018-10-12T07:17:44.924Z,165
2018-10-12T07:18:44.887Z,165
2018-10-12T07:19:44.971Z,170
2018-10-12T07:20:44.666Z,175
2018-10-12T07:21:44.640Z,170
2018-10-12T07:22:44.915Z,170
2018-10-12T07:23:45.187Z,170
2018-10-12T07:24:44.923Z,170
2018-10-12T07:25:44.687Z,170
2018-10-12T07:26:44.652Z,170
2018-10-12T07:27:44.667Z,170
2018-10-12T07:28:44.928Z,175
2018-10-12T07:29:44.926Z,175
2018-10-12T07:30:45.195Z,175
2018-10-12T07:31:44.495Z,180
2018-10-12T07:32:45.226Z,180
2018-10-12T07:33:44.715Z,180
2018-10-12T07:34:44.930Z,185
2018-10-12T07:35:44.414Z,185
2018-10-12T07:36:44.994Z,185
2018-10-12T07:37:45.637Z,185
2018-10-12T07:38:44.939Z,185
2018-10-12T07:39:44.993Z,185
2018-10-12T07:40:44.693Z,185
2018-10-12T07:41:44.692Z,185
2018-10-12T07:42:45.355Z,185
2018-10-12T07:43:44.443Z,185
2018-10-12T07:44:45.002Z,185
2018-10-12T07:45:44.992Z,185
2018-10-12T07:46:44.997Z,185
2018-10-12T07:47:44.979Z,190
2018-10-12T07:48:44.741Z,190
2018-10-12T07:49:44.748Z,190
2018-10-12T07:50:44.722Z,190
2018-10-12T07:51:44.988Z,190
2018-10-12T07:52:45.035Z,190
2018-10-12T07:53:44.752Z,190
2018-10-12T07:54:45.054Z,190
2018-10-12T07:55:44.502Z,190
2018-10-12T07:56:44.531Z,190
2018-10-12T07:57:45.037Z,190
2018-10-12T07:58:45.047Z,185
2018-10-12T07:59:45.293Z,185
2018-10-12T08:00:45.592Z,185
2018-10-12T08:01:45.053Z,185
2018-10-12T08:02:45.054Z,185
2018-10-12T08:03:45.306Z,185
2018-10-12T08:04:45.354Z,185
2018-10-12T08:05:46.416Z,185
2018-10-12T08:06:45.397Z,185
2018-10-12T08:07:45.349Z,185
2018-10-12T08:08:45.043Z,185
2018-10-12T08:09:46.004Z,180
2018-10-12T08:10:44.811Z,185
2018-10-12T08:11:45.332Z,190
2018-10-12T08:12:45.070Z,190
2018-10-12T08:13:45.473Z,190
2018-10-12T08:14:44.832Z,190
2018-10-12T08:15:44.829Z,190
2018-10-12T08:16:45.186Z,190
2018-10-12T08:17:44.817Z,190
2018-10-12T08:18:45.071Z,195
2018-10-12T08:19:45.077Z,195
2018-10-12T08:20:45.084Z,195
2018-10-12T08:21:45.108Z,195
2018-10-12T08:22:44.820Z,195
2018-10-12T08:23:45.088Z,195
2018-10-12T08:24:44.579Z,195
2018-10-12T08:25:44.831Z,200
2018-10-12T08:26:44.828Z,200
2018-10-12T08:27:45.349Z,200
2018-10-12T08:28:44.936Z,200
2018-10-12T08:29:45.091Z,200
2018-10-12T08:30:44.813Z,200
2018-10-12T08:31:45.323Z,200
2018-10-12T08:32:45.365Z,205
2018-10-12T08:33:45.091Z,205
2018-10-12T08:34:44.862Z,205
2018-10-12T08:35:46.152Z,205
2018-10-12T08:36:45.119Z,205
2018-10-12T08:37:44.847Z,205
2018-10-12T08:38:45.357Z,205
2018-10-12T08:39:45.101Z,205
2018-10-12T08:40:45.101Z,205
2018-10-12T08:41:45.345Z,205
2018-10-12T08:42:45.139Z,205
2018-10-12T08:43:45.098Z,205
2018-10-12T08:44:44.843Z,205
2018-10-12T08:45:45.362Z,205
2018-10-12T08:46:45.363Z,205
2018-10-12T08:47:44.852Z,205
2018-10-12T08:48:44.849Z,205
2018-10-12T08:49:45.113Z,205
2018-10-12T08:50:45.104Z,205
2018-10-12T08:51:45.357Z,210
2018-10-12T08:52:44.870Z,205
2018-10-12T08:53:44.836Z,205
2018-10-12T08:54:45.097Z,205
2018-10-12T08:55:45.460Z,205
2018-10-12T08:56:45.107Z,205
2018-10-12T08:57:45.111Z,205
2018-10-12T08:58:45.128Z,205
2018-10-12T08:59:45.109Z,205
2018-10-12T09:00:45.444Z,205
2018-10-12T09:01:44.842Z,205
2018-10-12T09:02:45.432Z,205
2018-10-12T09:03:44.835Z,205
2018-10-12T09:04:45.109Z,205
2018-10-12T09:05:45.346Z,205
2018-10-12T09:06:45.091Z,205
2018-10-12T09:07:45.379Z,205
2018-10-12T09:08:44.864Z,205
2018-10-12T09:09:45.284Z,205
2018-10-12T09:10:44.905Z,205
2018-10-12T09:11:45.129Z,205
2018-10-12T09:12:44.875Z,205
2018-10-12T09:13:45.423Z,205
2018-10-12T09:14:44.882Z,205
2018-10-12T09:15:44.657Z,205
2018-10-12T09:16:45.392Z,205
2018-10-12T09:17:45.183Z,205
2018-10-12T09:18:45.140Z,205
2018-10-12T09:19:44.917Z,205
2018-10-12T09:20:45.713Z,205
2018-10-12T09:21:45.614Z,205
2018-10-12T09:22:44.626Z,205
2018-10-12T09:23:45.398Z,205
2018-10-12T09:24:45.135Z,205
2018-10-12T09:25:45.406Z,205
2018-10-12T09:26:44.892Z,205
2018-10-12T09:27:45.178Z,205
2018-10-12T09:28:44.630Z,205
2018-10-12T09:29:44.897Z,205
2018-10-12T09:30:45.414Z,205
2018-10-12T09:31:45.404Z,205
2018-10-12T09:32:45.423Z,205
2018-10-12T09:33:44.905Z,205
2018-10-12T09:34:45.176Z,200
2018-10-12T09:35:45.433Z,200
2018-10-12T09:36:45.574Z,200
2018-10-12T09:37:45.190Z,200
2018-10-12T09:38:44.961Z,200
2018-10-12T09:39:45.407Z,200
2018-10-12T09:40:45.185Z,200
2018-10-12T09:41:45.418Z,200
2018-10-12T09:42:45.181Z,200
2018-10-12T09:43:45.181Z,200
2018-10-12T09:44:45.437Z,200
2018-10-12T09:45:45.192Z,200
2018-10-12T09:46:45.207Z,200
2018-10-12T09:47:45.452Z,200
2018-10-12T09:48:45.195Z,200
2018-10-12T09:49:45.221Z,200
2018-10-12T09:50:45.011Z,200
2018-10-12T09:51:45.456Z,200
2018-10-12T09:52:45.216Z,200
2018-10-12T09:53:44.940Z,200
2018-10-12T09:54:45.201Z,200
2018-10-12T09:55:44.989Z,200
2018-10-12T09:56:44.960Z,200
2018-10-12T09:57:45.490Z,200
2018-10-12T09:58:45.492Z,195
2018-10-12T09:59:45.480Z,195
2018-10-12T10:00:45.254Z,195
2018-10-12T10:01:45.422Z,195
2018-10-12T10:02:44.966Z,195
2018-10-12T10:03:44.742Z,195
2018-10-12T10:04:45.233Z,195
2018-10-12T10:05:44.726Z,195
2018-10-12T10:06:48.995Z,195
2018-10-12T10:07:46.426Z,195
2018-10-12T10:08:45.821Z,195
2018-10-12T10:09:45.268Z,195
2018-10-12T10:10:45.017Z,195
2018-10-12T10:11:44.996Z,195
2018-10-12T10:12:44.749Z,195
2018-10-12T10:13:45.411Z,190
2018-10-12T10:14:45.255Z,195
2018-10-12T10:15:45.589Z,190
2018-10-12T10:16:45.511Z,190
2018-10-12T10:17:45.532Z,190
2018-10-12T10:18:45.290Z,190
2018-10-12T10:19:45.030Z,190
2018-10-12T10:20:45.530Z,190
2018-10-12T10:21:45.270Z,190
2018-10-12T10:22:45.930Z,195
2018-10-12T10:23:45.272Z,195
2018-10-12T10:24:45.029Z,190
2018-10-12T10:25:45.546Z,190
2018-10-12T10:26:45.301Z,185
2018-10-12T10:27:45.299Z,185
2018-10-12T10:28:44.823Z,185
2018-10-12T10:29:45.319Z,185
2018-10-12T10:30:45.577Z,185
2018-10-12T10:31:45.326Z,185
2018-10-12T10:32:45.582Z,185
2018-10-12T10:33:44.794Z,185
2018-10-12T10:34:44.818Z,185
2018-10-12T10:35:45.070Z,185
2018-10-12T10:36:49.617Z,185
2018-10-12T10:37:45.104Z,185
2018-10-12T10:38:44.831Z,180
2018-10-12T10:39:45.359Z,180
2018-10-12T10:40:45.080Z,180
2018-10-12T10:41:45.363Z,180
2018-10-12T10:42:44.832Z,180
2018-10-12T10:43:45.083Z,180
2018-10-12T10:44:45.115Z,180
2018-10-12T10:45:45.103Z,180
2018-10-12T10:46:45.606Z,180
2018-10-12T10:47:45.362Z,180
2018-10-12T10:48:44.840Z,180
2018-10-12T10:49:45.632Z,180
2018-10-12T10:50:45.608Z,180
2018-10-12T10:51:45.133Z,180
2018-10-12T10:52:45.380Z,175
2018-10-12T10:53:45.443Z,180
2018-10-12T10:54:44.624Z,175
2018-10-12T10:55:45.400Z,175
2018-10-12T10:56:45.635Z,175
2018-10-12T10:57:45.136Z,175
2018-10-12T10:58:44.886Z,175
2018-10-12T10:59:45.163Z,175
2018-10-12T11:00:45.537Z,175
2018-10-12T11:01:45.411Z,175
2018-10-12T11:02:45.154Z,175
2018-10-12T11:03:45.674Z,175
2018-10-12T11:04:45.180Z,175
2018-10-12T11:05:45.414Z,175
2018-10-12T11:06:46.798Z,175
2018-10-12T11:07:44.920Z,175
2018-10-12T11:08:45.421Z,175
2018-10-12T11:09:45.183Z,175
2018-10-12T11:10:45.175Z,175
2018-10-12T11:11:45.175Z,175
2018-10-12T11:12:45.886Z,175
2018-10-12T11:13:45.241Z,175
2018-10-12T11:14:45.209Z,175
2018-10-12T11:15:44.937Z,175
2018-10-12T11:16:45.208Z,175
2018-10-12T11:17:45.255Z,175
2018-10-12T11:18:45.208Z,175
2018-10-12T11:19:46.119Z,175
2018-10-12T11:20:45.724Z,175
2018-10-12T11:21:45.469Z,175
2018-10-12T11:22:45.299Z,170
2018-10-12T11:23:45.739Z,175
2018-10-12T11:24:45.575Z,170
2018-10-12T11:25:45.214Z,170
2018-10-12T11:26:45.964Z,170
2018-10-12T11:27:45.489Z,170
2018-10-12T11:28:45.228Z,170
2018-10-12T11:29:45.756Z,170
2018-10-12T11:30:45.498Z,170
2018-10-12T11:31:45.303Z,170
2018-10-12T11:32:46.133Z,170
2018-10-12T11:33:45.526Z,170
2018-10-12T11:34:45.836Z,170
2018-10-12T11:35:44.769Z,175
2018-10-12T11:36:45.814Z,165
2018-10-12T11:37:45.285Z,165
2018-10-12T11:38:45.554Z,165
2018-10-12T11:39:45.306Z,165
2018-10-12T11:40:45.831Z,165
2018-10-12T11:41:45.023Z,165
2018-10-12T11:42:45.562Z,165
2018-10-12T11:43:45.305Z,165
2018-10-12T11:44:45.589Z,165
2018-10-12T11:45:45.854Z,165
2018-10-12T11:46:45.556Z,165
2018-10-12T11:47:46.380Z,165
2018-10-12T11:48:45.605Z,165
2018-10-12T11:49:45.583Z,165
2018-10-12T11:50:45.826Z,165
2018-10-12T11:51:45.840Z,165
2018-10-12T11:52:46.738Z,160
2018-10-12T11:53:45.600Z,160
2018-10-12T11:54:45.861Z,160
2018-10-12T11:55:45.591Z,160
2018-10-12T11:56:45.661Z,160
2018-10-12T11:57:45.907Z,160
2018-10-12T11:58:44.849Z,160
2018-10-12T11:59:45.696Z,160
2018-10-12T12:00:45.742Z,160
2018-10-12T12:01:45.625Z,160
2018-10-12T12:02:45.891Z,160
2018-10-12T12:03:45.886Z,160
2018-10-12T12:04:45.121Z,160
2018-10-12T12:05:45.634Z,160
2018-10-12T12:06:45.636Z,160
2018-10-12T12:07:46.463Z,160
2018-10-12T12:08:45.675Z,160
2018-10-12T12:09:45.904Z,160
2018-10-12T12:10:45.681Z,160
2018-10-12T12:11:45.953Z,160
2018-10-12T12:12:45.168Z,160
2018-10-12T12:13:46.065Z,155
2018-10-12T12:14:45.695Z,160
2018-10-12T12:15:45.959Z,160
2018-10-12T12:16:45.687Z,155
2018-10-12T12:17:45.949Z,155
2018-10-12T12:18:45.443Z,155
2018-10-12T12:19:45.723Z,155
2018-10-12T12:20:45.266Z,155
2018-10-12T12:21:45.708Z,155
2018-10-12T12:22:45.699Z,155
2018-10-12T12:23:45.457Z,155
2018-10-12T12:24:45.483Z,155
2018-10-12T12:25:45.741Z,155
2018-10-12T12:26:45.205Z,155
2018-10-12T12:27:45.788Z,155
2018-10-12T12:28:45.756Z,155
2018-10-12T12:29:45.291Z,155
2018-10-12T12:30:45.487Z,155
2018-10-12T12:31:45.760Z,155
2018-10-12T12:32:45.764Z,155
2018-10-12T12:33:45.750Z,155
2018-10-12T12:34:46.832Z,155
2018-10-12T12:35:48.859Z,155
2018-10-12T12:36:45.272Z,155
2018-10-12T12:37:45.523Z,155
2018-10-12T12:38:45.520Z,155
2018-10-12T12:39:45.550Z,155
2018-10-12T12:40:45.513Z,155
2018-10-12T12:41:46.437Z,155
2018-10-12T12:42:45.286Z,155
2018-10-12T12:43:45.826Z,155
2018-10-12T12:44:46.131Z,155
2018-10-12T12:45:45.541Z,155
2018-10-12T12:46:45.579Z,150
2018-10-12T12:47:46.839Z,150
2018-10-12T12:48:48.027Z,150
2018-10-12T12:49:45.809Z,150
2018-10-12T12:50:45.852Z,150
2018-10-12T12:51:46.075Z,150
2018-10-12T12:52:46.102Z,150
2018-10-12T12:53:46.040Z,150
2018-10-12T12:54:46.360Z,150
2018-10-12T12:55:45.851Z,150
2018-10-12T12:56:45.850Z,150
2018-10-12T12:57:46.114Z,150
2018-10-12T12:58:45.859Z,150
2018-10-12T12:59:46.110Z,150
2018-10-12T13:00:46.569Z,150
2018-10-12T13:01:45.340Z,150
2018-10-12T13:02:46.248Z,150
2018-10-12T13:03:45.869Z,150
2018-10-12T13:04:45.874Z,150
2018-10-12T13:05:45.639Z,150
2018-10-12T13:06:46.440Z,145
2018-10-12T13:07:45.375Z,145
2018-10-12T13:08:46.143Z,145
2018-10-12T13:09:46.175Z,145
2018-10-12T13:10:45.950Z,145
2018-10-12T13:11:45.682Z,145
2018-10-12T13:12:45.662Z,150
2018-10-12T13:13:46.281Z,150
2018-10-12T13:14:45.476Z,150
2018-10-12T13:15:45.953Z,150
2018-10-12T13:16:45.995Z,145
2018-10-12T13:17:45.692Z,150
2018-10-12T13:18:45.492Z,150
2018-10-12T13:19:45.695Z,150
2018-10-12T13:20:46.252Z,150
2018-10-12T13:21:45.980Z,150
2018-10-12T13:22:46.227Z,150
2018-10-12T13:23:45.956Z,150
2018-10-12T13:24:45.764Z,145
2018-10-12T13:25:46.624Z,145
2018-10-12T13:26:45.988Z,145
2018-10-12T13:27:45.451Z,145
2018-10-12T13:28:45.727Z,145
2018-10-12T13:29:45.988Z,145
2018-10-12T13:30:46.263Z,145
2018-10-12T13:31:45.743Z,145
2018-10-12T13:32:45.797Z,145
2018-10-12T13:33:46.246Z,145
2018-10-12T13:34:45.533Z,145
2018-10-12T13:35:45.226Z,145
2018-10-12T13:36:45.514Z,145
2018-10-12T13:37:46.402Z,145
2018-10-12T13:38:46.895Z,145
2018-10-12T13:39:46.444Z,145
2018-10-12T13:40:45.770Z,145
2018-10-12T13:41:45.800Z,145
2018-10-12T13:42:45.798Z,140
2018-10-12T13:43:45.781Z,140
2018-10-12T13:44:46.317Z,140
2018-10-12T13:45:46.318Z,140
2018-10-12T13:46:46.417Z,140
2018-10-12T13:47:46.318Z,140
2018-10-12T13:48:46.070Z,140
2018-10-12T13:49:46.304Z,140
2018-10-12T13:50:46.327Z,140
2018-10-12T13:51:46.110Z,140
2018-10-12T13:52:46.141Z,140
2018-10-12T13:53:46.160Z,140
2018-10-12T13:54:46.142Z,140
2018-10-12T13:55:46.096Z,140
2018-10-12T13:56:46.106Z,140
2018-10-12T13:57:45.841Z,140
2018-10-12T13:58:46.916Z,140
2018-10-12T13:59:46.119Z,135
2018-10-12T14:00:46.119Z,135
2018-10-12T14:01:45.636Z,140
2018-10-12T14:02:46.147Z,135
2018-10-12T14:03:46.395Z,135
2018-10-12T14:04:46.379Z,135
2018-10-12T14:05:46.623Z,135
2018-10-12T14:06:46.165Z,135
2018-10-12T14:07:46.149Z,135
2018-10-12T14:08:46.413Z,135
2018-10-12T14:09:46.387Z,135
2018-10-12T14:10:46.127Z,130
2018-10-12T14:11:46.146Z,130
2018-10-12T14:12:46.162Z,130